Time;durP1;ratioP1;P1;durP2;ratioP2;P2;SDS_P1;SDS_P2;PMS_P1;PMS_P2;Temp;Humidity;BMP_temperature;BMP_pressure;BME280_temperature;BME280_humidity;BME280_pressure;Samples;Min_cycle;Max_cycle;Signal;HPM_P1;HPM_P2
2021/09/20 00:01:00;;;;;;;7.45;5.63;;;17.30;89.40;;;;;;4967315;28;20181;-72
2021/09/20 00:03:26;;;;;;;11.82;5.60;;;17.20;89.40;;;;;;4990102;28;20185;-75
2021/09/20 00:05:51;;;;;;;8.75;5.55;;;17.20;89.40;;;;;;4980139;28;20185;-75
2021/09/20 00:08:17;;;;;;;7.95;5.47;;;17.20;89.50;;;;;;5002089;28;20197;-75
2021/09/20 00:10:43;;;;;;;7.85;5.63;;;17.20;89.40;;;;;;4997013;28;20188;-74
2021/09/20 00:13:08;;;;;;;7.32;5.38;;;17.20;89.40;;;;;;4991199;28;20338;-78
2021/09/20 00:15:34;;;;;;;7.90;5.50;;;17.20;89.50;;;;;;4989211;28;20193;-75
2021/09/20 00:17:59;;;;;;;7.57;5.57;;;17.20;89.50;;;;;;4974915;28;20212;-73
2021/09/20 00:20:25;;;;;;;7.03;5.32;;;17.20;89.50;;;;;;4981708;28;20501;-76
2021/09/20 00:22:52;;;;;;;8.27;5.55;;;17.20;89.50;;;;;;4967607;28;20181;-75
2021/09/20 00:25:18;;;;;;;9.43;5.80;;;17.20;89.50;;;;;;4990933;28;20609;-73
2021/09/20 00:27:44;;;;;;;9.48;5.35;;;17.10;89.50;;;;;;4978764;28;20252;-76
2021/09/20 00:30:11;;;;;;;8.30;5.57;;;17.10;89.50;;;;;;4973224;28;20314;-74
2021/09/20 00:32:36;;;;;;;6.55;5.07;;;17.10;89.60;;;;;;4971297;28;20195;-75
2021/09/20 00:35:05;;;;;;;8.18;5.28;;;17.10;89.60;;;;;;4970002;28;20276;-74
2021/09/20 00:37:30;;;;;;;11.30;5.85;;;17.10;89.40;;;;;;4973763;28;20224;-74
2021/09/20 00:39:56;;;;;;;6.80;5.15;;;17.10;89.30;;;;;;4972713;28;20267;-76
2021/09/20 00:42:22;;;;;;;7.70;5.20;;;17.00;89.30;;;;;;4977209;28;20221;-73
2021/09/20 00:44:47;;;;;;;6.38;4.82;;;17.00;89.20;;;;;;4968610;28;20201;-75
2021/09/20 00:47:13;;;;;;;6.50;5.00;;;17.00;89.30;;;;;;4967256;28;20255;-74
2021/09/20 00:49:38;;;;;;;7.65;5.47;;;17.00;89.30;;;;;;4980701;28;20192;-74
2021/09/20 00:52:04;;;;;;;7.20;5.28;;;17.00;89.20;;;;;;4988270;28;20823;-74
2021/09/20 00:54:30;;;;;;;6.68;5.20;;;17.00;89.20;;;;;;4981076;28;20203;-73
2021/09/20 00:56:56;;;;;;;8.25;5.05;;;17.00;89.10;;;;;;4979222;28;20220;-73
2021/09/20 00:59:22;;;;;;;11.07;5.35;;;17.00;89.00;;;;;;4967992;28;20188;-73
2021/09/20 01:01:48;;;;;;;8.15;5.15;;;17.00;88.90;;;;;;4992452;28;20193;-74
2021/09/20 01:04:14;;;;;;;10.32;5.03;;;16.90;88.70;;;;;;4957413;28;20280;-74
2021/09/20 01:06:40;;;;;;;6.50;5.15;;;16.90;88.70;;;;;;4981610;28;20816;-72
2021/09/20 01:09:05;;;;;;;6.32;4.63;;;16.90;88.60;;;;;;4984559;28;20663;-73
2021/09/20 01:11:32;;;;;;;8.13;5.43;;;16.90;88.60;;;;;;4984252;28;20189;-72
2021/09/20 01:13:58;;;;;;;7.10;4.63;;;16.90;88.60;;;;;;4976415;28;20186;-75
2021/09/20 01:16:23;;;;;;;9.77;5.55;;;16.80;88.60;;;;;;4969132;28;20189;-73
2021/09/20 01:18:49;;;;;;;7.22;4.90;;;16.80;88.50;;;;;;4968893;28;20213;-73
2021/09/20 01:21:15;;;;;;;7.30;5.00;;;16.80;88.40;;;;;;4978141;28;20182;-74
2021/09/20 01:23:42;;;;;;;6.32;4.80;;;16.80;88.40;;;;;;4982206;28;20190;-73
2021/09/20 01:26:10;;;;;;;7.50;5.13;;;16.80;88.20;;;;;;4991098;28;20189;-73
2021/09/20 01:28:35;;;;;;;8.68;5.25;;;16.80;87.90;;;;;;4971353;28;20277;-73
2021/09/20 01:31:01;;;;;;;9.30;5.30;;;16.80;87.70;;;;;;4970758;28;20709;-72
2021/09/20 01:33:27;;;;;;;11.40;5.15;;;16.70;87.40;;;;;;4971964;28;20260;-73
2021/09/20 01:35:53;;;;;;;7.68;4.95;;;16.70;87.20;;;;;;4971803;28;20643;-73
2021/09/20 01:38:19;;;;;;;8.85;5.18;;;16.70;87.00;;;;;;4979433;28;20224;-73
2021/09/20 01:40:46;;;;;;;9.20;5.22;;;16.70;86.90;;;;;;4973374;28;20612;-72
2021/09/20 01:43:12;;;;;;;7.93;5.30;;;16.60;86.70;;;;;;4981183;28;20219;-72
2021/09/20 01:45:38;;;;;;;7.25;5.22;;;16.60;86.60;;;;;;5002008;28;20199;-72
2021/09/20 01:48:04;;;;;;;9.10;5.00;;;16.60;86.60;;;;;;4979341;28;20182;-72
2021/09/20 01:50:29;;;;;;;7.80;5.43;;;16.50;87.20;;;;;;4977227;28;20813;-73
2021/09/20 01:52:55;;;;;;;8.77;5.15;;;16.50;86.40;;;;;;4985239;28;20194;-73
2021/09/20 01:55:21;;;;;;;9.48;5.38;;;16.50;86.20;;;;;;4977206;28;20223;-72
2021/09/20 01:57:47;;;;;;;9.43;5.53;;;16.50;86.10;;;;;;4963020;28;20768;-73
2021/09/20 02:00:16;;;;;;;8.27;4.65;;;16.50;86.00;;;;;;4965736;28;20189;-73
2021/09/20 02:02:42;;;;;;;7.05;4.90;;;16.50;85.80;;;;;;4978791;28;20191;-73
2021/09/20 02:05:09;;;;;;;6.97;5.07;;;16.50;85.60;;;;;;4981571;28;20220;-73
2021/09/20 02:07:35;;;;;;;6.65;4.97;;;16.50;85.50;;;;;;4985503;28;20255;-72
2021/09/20 02:10:03;;;;;;;9.10;5.00;;;16.50;85.30;;;;;;4981989;28;20256;-72
2021/09/20 02:12:28;;;;;;;8.60;5.32;;;16.50;85.10;;;;;;4980128;28;20663;-72
2021/09/20 02:14:54;;;;;;;7.75;5.45;;;16.50;84.90;;;;;;4970626;28;20193;-72
2021/09/20 02:17:19;;;;;;;7.50;5.03;;;16.50;84.80;;;;;;4987396;28;20442;-72
2021/09/20 02:19:45;;;;;;;8.70;5.50;;;16.50;84.60;;;;;;4982326;28;20186;-73
2021/09/20 02:22:10;;;;;;;7.82;5.55;;;16.50;84.30;;;;;;4970894;28;20248;-73
2021/09/20 02:24:36;;;;;;;7.22;5.53;;;16.50;84.20;;;;;;4984379;28;20194;-73
2021/09/20 02:27:02;;;;;;;6.53;5.15;;;16.40;84.20;;;;;;4985284;28;20184;-73
2021/09/20 02:29:27;;;;;;;7.90;5.57;;;16.40;84.00;;;;;;4983687;28;20211;-73
2021/09/20 02:31:53;;;;;;;7.05;5.32;;;16.40;83.80;;;;;;4969959;28;20182;-74
2021/09/20 02:34:19;;;;;;;9.70;5.50;;;16.30;83.50;;;;;;4967825;28;20209;-74
2021/09/20 02:36:45;;;;;;;7.20;5.53;;;16.30;83.40;;;;;;4969314;28;20256;-74
2021/09/20 02:39:10;;;;;;;8.20;5.10;;;16.30;83.20;;;;;;4973845;28;20260;-73
2021/09/20 02:41:36;;;;;;;7.07;5.38;;;16.30;83.10;;;;;;4970505;28;20588;-73
2021/09/20 02:44:02;;;;;;;8.88;5.43;;;16.30;82.90;;;;;;4969714;28;20186;-73
2021/09/20 02:46:28;;;;;;;11.38;5.05;;;16.20;82.70;;;;;;4979267;28;20330;-72
2021/09/20 02:48:53;;;;;;;5.95;4.70;;;16.20;82.70;;;;;;4996728;28;20181;-73
2021/09/20 02:51:19;;;;;;;6.78;5.28;;;16.20;82.70;;;;;;4977342;28;20207;-74
2021/09/20 02:53:45;;;;;;;7.88;5.43;;;16.20;82.80;;;;;;4969055;28;20185;-74
2021/09/20 02:56:10;;;;;;;9.35;5.72;;;16.20;82.80;;;;;;4966193;28;20188;-74
2021/09/20 02:58:36;;;;;;;6.72;5.03;;;16.20;82.70;;;;;;4968935;28;20905;-73
2021/09/20 03:01:02;;;;;;;7.20;5.20;;;16.10;82.50;;;;;;4957919;28;20184;-73
2021/09/20 03:03:28;;;;;;;8.18;5.10;;;16.10;82.50;;;;;;4978084;28;20186;-73
2021/09/20 03:05:53;;;;;;;6.60;5.25;;;16.10;82.40;;;;;;4976185;28;20320;-74
2021/09/20 03:08:19;;;;;;;9.02;5.60;;;16.20;82.40;;;;;;4957326;28;20545;-74
2021/09/20 03:10:45;;;;;;;7.18;5.88;;;16.10;82.20;;;;;;4973945;28;20193;-73
2021/09/20 03:13:10;;;;;;;7.65;5.20;;;16.10;81.90;;;;;;4994626;28;20197;-73
2021/09/20 03:15:36;;;;;;;7.40;5.35;;;16.10;81.60;;;;;;4981031;28;20199;-75
2021/09/20 03:18:02;;;;;;;7.72;5.47;;;16.00;81.40;;;;;;4967117;28;20690;-75
2021/09/20 03:20:27;;;;;;;7.82;5.55;;;16.00;81.30;;;;;;4975115;28;20236;-75
2021/09/20 03:22:53;;;;;;;8.75;5.35;;;16.00;81.20;;;;;;4976149;28;20185;-75
2021/09/20 03:25:19;;;;;;;9.35;5.60;;;16.00;81.90;;;;;;4966857;28;20651;-74
2021/09/20 03:27:45;;;;;;;7.10;5.15;;;15.90;81.10;;;;;;4964065;28;20202;-74
2021/09/20 03:30:13;;;;;;;9.90;5.30;;;15.90;81.30;;;;;;4975176;28;20557;-74
2021/09/20 03:32:39;;;;;;;9.10;5.30;;;15.90;81.10;;;;;;4993742;28;20633;-74
2021/09/20 03:35:06;;;;;;;7.88;5.20;;;16.00;81.20;;;;;;4973151;28;20220;-72
2021/09/20 03:37:32;;;;;;;6.18;4.45;;;16.00;81.10;;;;;;4969693;28;20218;-73
2021/09/20 03:39:57;;;;;;;9.18;5.22;;;16.00;81.10;;;;;;4964084;28;20185;-73
2021/09/20 03:42:23;;;;;;;6.70;5.38;;;16.00;81.20;;;;;;4969352;28;20685;-73
2021/09/20 03:44:49;;;;;;;7.13;5.18;;;16.00;81.30;;;;;;4964720;28;20212;-74
2021/09/20 03:47:14;;;;;;;8.60;5.00;;;16.00;81.20;;;;;;4967346;28;20287;-73
2021/09/20 03:49:40;;;;;;;6.53;5.00;;;16.00;81.10;;;;;;4984798;28;20579;-73
2021/09/20 03:52:06;;;;;;;8.52;4.80;;;15.90;81.00;;;;;;4977712;28;20706;-74
2021/09/20 03:54:31;;;;;;;7.40;4.88;;;15.90;80.90;;;;;;4990366;28;20292;-74
2021/09/20 03:56:57;;;;;;;8.63;5.63;;;15.90;80.70;;;;;;4995579;28;20204;-72
2021/09/20 03:59:23;;;;;;;7.78;5.45;;;15.90;80.70;;;;;;4994962;28;20991;-75
2021/09/20 04:01:48;;;;;;;5.47;4.35;;;15.90;80.70;;;;;;4959180;28;20196;-74
2021/09/20 04:04:16;;;;;;;7.90;5.13;;;15.90;80.80;;;;;;4969098;28;20185;-73
2021/09/20 04:06:42;;;;;;;9.38;5.30;;;15.90;80.90;;;;;;4987325;28;20250;-74
2021/09/20 04:09:07;;;;;;;6.90;4.70;;;15.90;81.00;;;;;;4971584;28;20189;-74
2021/09/20 04:11:33;;;;;;;7.43;4.95;;;15.90;81.00;;;;;;4974988;28;20670;-74
2021/09/20 04:13:59;;;;;;;6.40;5.20;;;15.90;81.00;;;;;;4975472;28;20195;-74
2021/09/20 04:16:25;;;;;;;6.90;4.93;;;15.90;81.00;;;;;;4990954;28;20272;-75
2021/09/20 04:18:51;;;;;;;8.68;5.35;;;15.90;81.00;;;;;;4986634;28;20305;-75
2021/09/20 04:21:17;;;;;;;8.70;4.93;;;15.90;81.00;;;;;;4974990;28;20232;-75
2021/09/20 04:23:42;;;;;;;7.28;5.13;;;15.90;81.00;;;;;;4977361;28;20188;-75
2021/09/20 04:26:08;;;;;;;7.05;5.32;;;15.90;81.00;;;;;;4982332;28;20173;-74
2021/09/20 04:28:33;;;;;;;6.22;4.63;;;15.90;80.90;;;;;;4968359;28;20189;-74
2021/09/20 04:30:59;;;;;;;7.75;5.55;;;15.90;81.00;;;;;;4981393;28;20188;-75
2021/09/20 04:33:25;;;;;;;8.70;5.57;;;15.90;81.00;;;;;;4986354;28;20704;-75
2021/09/20 04:35:50;;;;;;;9.10;5.38;;;15.90;80.80;;;;;;4969293;28;20793;-76
2021/09/20 04:38:16;;;;;;;8.93;4.82;;;15.90;80.70;;;;;;4970487;28;20309;-75
2021/09/20 04:40:43;;;;;;;7.65;5.20;;;15.80;80.50;;;;;;4979688;28;20197;-76
2021/09/20 04:43:12;;;;;;;7.57;5.00;;;15.80;80.50;;;;;;4972953;28;20182;-75
2021/09/20 04:45:39;;;;;;;7.53;5.47;;;15.80;80.40;;;;;;4971222;28;20247;-71
2021/09/20 04:48:09;;;;;;;8.30;5.30;;;15.80;80.50;;;;;;4974621;28;20876;-75
2021/09/20 04:50:36;;;;;;;8.15;5.00;;;15.80;80.60;;;;;;4981082;28;20185;-74
2021/09/20 04:53:01;;;;;;;15.10;5.03;;;15.80;80.50;;;;;;4968789;28;20197;-75
2021/09/20 04:55:27;;;;;;;11.77;4.90;;;15.80;80.60;;;;;;4991907;28;20193;-73
2021/09/20 04:57:54;;;;;;;9.00;5.07;;;15.80;80.90;;;;;;4979350;28;20212;-75
2021/09/20 05:00:20;;;;;;;7.28;4.78;;;15.80;81.00;;;;;;4967585;28;20185;-75
2021/09/20 05:02:45;;;;;;;8.27;5.13;;;15.80;81.00;;;;;;4964295;28;20280;-73
2021/09/20 05:05:13;;;;;;;7.05;5.18;;;15.80;81.00;;;;;;4972831;28;20192;-74
2021/09/20 05:07:39;;;;;;;14.18;5.00;;;15.80;81.00;;;;;;4975003;28;20311;-74
2021/09/20 05:10:05;;;;;;;6.85;4.47;;;15.80;81.00;;;;;;4966293;28;20190;-75
2021/09/20 05:12:31;;;;;;;7.82;4.93;;;15.80;81.00;;;;;;4971135;28;20212;-73
2021/09/20 05:14:56;;;;;;;8.82;5.03;;;15.80;81.00;;;;;;4989219;28;20696;-73
2021/09/20 05:17:22;;;;;;;8.00;4.90;;;15.80;81.00;;;;;;4989264;28;20216;-75
2021/09/20 05:19:48;;;;;;;6.57;5.03;;;15.80;81.00;;;;;;4978080;28;20176;-74
2021/09/20 05:22:14;;;;;;;8.05;4.97;;;15.80;81.00;;;;;;4994974;28;20193;-75
2021/09/20 05:24:39;;;;;;;10.32;5.47;;;15.70;81.00;;;;;;4997911;28;20250;-74
2021/09/20 05:27:05;;;;;;;8.40;5.20;;;15.70;81.20;;;;;;4985608;28;20644;-74
2021/09/20 05:29:31;;;;;;;10.05;5.22;;;15.70;81.20;;;;;;4968155;28;20227;-74
2021/09/20 05:31:56;;;;;;;6.18;5.05;;;15.70;81.20;;;;;;5001152;28;20192;-75
2021/09/20 05:34:23;;;;;;;8.32;4.80;;;15.70;81.20;;;;;;4971188;28;20198;-73
2021/09/20 05:36:49;;;;;;;8.45;5.70;;;15.70;81.30;;;;;;4972665;28;20267;-73
2021/09/20 05:39:15;;;;;;;8.52;5.43;;;15.70;81.20;;;;;;4970119;28;20263;-73
2021/09/20 05:41:40;;;;;;;10.10;5.30;;;15.70;81.20;;;;;;4984550;28;20182;-74
2021/09/20 05:44:06;;;;;;;8.77;5.47;;;15.60;81.10;;;;;;4973675;28;20243;-74
2021/09/20 05:46:32;;;;;;;10.50;5.60;;;15.60;81.10;;;;;;4978825;28;20269;-73
2021/09/20 05:48:57;;;;;;;11.35;6.20;;;15.60;81.10;;;;;;4978302;28;20186;-73
2021/09/20 05:51:23;;;;;;;14.82;9.73;;;15.60;81.30;;;;;;4971019;28;20210;-73
2021/09/20 05:53:48;;;;;;;10.15;6.50;;;15.50;81.30;;;;;;4991376;28;20643;-73
2021/09/20 05:56:14;;;;;;;7.85;5.90;;;15.50;81.60;;;;;;4973909;28;20673;-73
2021/09/20 05:58:40;;;;;;;9.05;6.28;;;15.50;81.70;;;;;;4974755;28;20216;-73
2021/09/20 06:01:06;;;;;;;8.35;6.18;;;15.40;81.70;;;;;;4981070;28;20655;-73
2021/09/20 06:03:32;;;;;;;10.13;6.07;;;15.40;81.90;;;;;;4968626;28;20194;-73
2021/09/20 06:05:57;;;;;;;8.88;6.22;;;15.40;82.10;;;;;;4983992;28;20174;-74
2021/09/20 06:08:23;;;;;;;8.63;5.90;;;15.30;82.10;;;;;;4985457;28;20189;-73
2021/09/20 06:10:49;;;;;;;9.77;6.50;;;15.30;82.40;;;;;;4970532;28;20190;-72
2021/09/20 06:13:15;;;;;;;8.48;6.53;;;15.30;82.50;;;;;;4983330;28;20223;-73
2021/09/20 06:15:40;;;;;;;11.52;6.47;;;15.30;82.80;;;;;;4961069;28;20190;-74
2021/09/20 06:18:07;;;;;;;9.63;6.80;;;15.30;82.90;;;;;;4984799;28;20263;-75
2021/09/20 06:20:33;;;;;;;9.40;6.57;;;15.30;83.00;;;;;;4996020;28;20200;-74
2021/09/20 06:22:59;;;;;;;10.15;6.35;;;15.30;83.10;;;;;;4973645;28;20186;-75
2021/09/20 06:25:25;;;;;;;11.88;7.13;;;15.40;83.50;;;;;;4970497;28;20186;-74
2021/09/20 06:27:52;;;;;;;9.93;6.28;;;15.40;83.50;;;;;;4959744;28;20185;-74
2021/09/20 06:30:18;;;;;;;11.32;7.03;;;15.40;83.60;;;;;;4972724;28;20250;-76
2021/09/20 06:32:45;;;;;;;10.82;6.88;;;15.50;83.70;;;;;;4972627;28;20635;-74
2021/09/20 06:35:12;;;;;;;29.05;17.88;;;15.50;83.70;;;;;;4984936;28;20646;-75
2021/09/20 06:37:38;;;;;;;11.02;8.15;;;15.50;83.80;;;;;;4976658;28;20208;-75
2021/09/20 06:40:05;;;;;;;11.27;7.63;;;15.50;83.90;;;;;;4961325;28;20269;-75
2021/09/20 06:42:31;;;;;;;11.05;7.13;;;15.50;83.90;;;;;;4971833;28;20247;-75
2021/09/20 06:44:57;;;;;;;13.23;8.20;;;15.60;84.00;;;;;;4991092;28;20214;-75
2021/09/20 06:47:23;;;;;;;11.35;7.65;;;15.60;83.90;;;;;;4971339;28;20193;-76
2021/09/20 06:49:49;;;;;;;12.98;7.57;;;15.60;83.80;;;;;;4971500;28;20216;-74
2021/09/20 06:52:15;;;;;;;12.50;7.30;;;15.60;83.50;;;;;;4973224;28;20252;-74
2021/09/20 06:54:41;;;;;;;14.30;7.47;;;15.70;83.50;;;;;;4969645;28;20181;-75
2021/09/20 06:57:06;;;;;;;13.43;7.45;;;15.70;83.40;;;;;;4969337;28;20578;-74
2021/09/20 06:59:32;;;;;;;11.65;6.50;;;15.70;83.10;;;;;;4971175;28;20182;-76
2021/09/20 07:01:57;;;;;;;11.85;7.18;;;15.80;83.10;;;;;;4964441;28;20227;-75
2021/09/20 07:04:23;;;;;;;12.75;6.55;;;15.80;82.80;;;;;;4959294;28;20190;-74
2021/09/20 07:06:49;;;;;;;9.55;6.50;;;15.80;82.60;;;;;;4951452;28;20253;-75
2021/09/20 07:09:15;;;;;;;10.18;6.68;;;15.80;82.40;;;;;;4949473;29;20186;-74
2021/09/20 07:11:41;;;;;;;16.83;7.22;;;15.90;82.30;;;;;;4949332;29;20186;-74
2021/09/20 07:14:07;;;;;;;10.35;6.30;;;15.90;82.10;;;;;;4937930;28;20682;-76
2021/09/20 07:16:33;;;;;;;8.80;6.38;;;15.90;82.60;;;;;;4946589;29;20557;-75
2021/09/20 07:18:59;;;;;;;13.75;7.28;;;15.90;81.50;;;;;;4947355;29;20223;-75
2021/09/20 07:21:26;;;;;;;10.18;6.53;;;15.90;81.30;;;;;;4945862;29;20196;-76
2021/09/20 07:23:54;;;;;;;8.13;6.18;;;16.00;81.10;;;;;;4946531;28;20222;-74
2021/09/20 07:26:22;;;;;;;10.48;5.97;;;16.00;80.90;;;;;;4945045;28;20285;-77
2021/09/20 07:28:48;;;;;;;8.32;6.25;;;16.10;80.80;;;;;;4943668;29;20664;-75
2021/09/20 07:31:14;;;;;;;9.65;6.38;;;16.10;80.40;;;;;;4947625;28;20715;-74
2021/09/20 07:33:40;;;;;;;12.60;5.60;;;16.10;79.90;;;;;;4944415;29;20273;-76
2021/09/20 07:36:05;;;;;;;8.77;5.50;;;16.20;79.80;;;;;;4947594;29;20218;-75
2021/09/20 07:38:32;;;;;;;6.72;5.28;;;16.20;79.60;;;;;;4946447;28;20245;-74
2021/09/20 07:40:57;;;;;;;11.82;6.85;;;16.20;78.90;;;;;;4948269;29;20190;-74
2021/09/20 07:43:23;;;;;;;12.13;5.45;;;16.30;78.30;;;;;;4948937;28;20269;-74
2021/09/20 07:45:50;;;;;;;9.85;5.95;;;16.30;77.60;;;;;;4932891;29;20187;-73
2021/09/20 07:48:15;;;;;;;7.72;5.38;;;16.30;77.30;;;;;;4948347;29;20273;-70
2021/09/20 07:50:41;;;;;;;8.63;5.40;;;16.40;77.00;;;;;;4946481;29;20277;-73
2021/09/20 07:53:07;;;;;;;10.57;5.90;;;16.40;76.70;;;;;;4948036;29;20278;-70
2021/09/20 07:55:35;;;;;;;13.57;6.07;;;16.50;76.80;;;;;;4948672;29;20189;-76
2021/09/20 07:58:06;;;;;;;7.35;5.40;;;16.60;76.80;;;;;;4946385;29;20223;-76
2021/09/20 08:00:33;;;;;;;11.02;5.20;;;16.60;76.70;;;;;;4948265;29;20198;-75
2021/09/20 08:02:59;;;;;;;8.13;4.97;;;16.80;76.40;;;;;;4948852;29;20939;-75
2021/09/20 08:05:24;;;;;;;8.55;5.40;;;16.80;76.00;;;;;;4944649;29;20278;-73
2021/09/20 08:07:51;;;;;;;8.63;5.63;;;16.90;75.70;;;;;;4971131;28;20300;-75
2021/09/20 08:10:17;;;;;;;8.25;5.15;;;17.00;75.30;;;;;;4986123;28;20185;-75
2021/09/20 08:12:43;;;;;;;10.93;5.85;;;17.10;75.10;;;;;;4980690;28;20215;-74
2021/09/20 08:15:10;;;;;;;11.55;5.55;;;17.20;74.60;;;;;;4979186;28;20932;-74
2021/09/20 08:17:36;;;;;;;9.15;5.70;;;17.30;74.40;;;;;;4972869;28;20271;-75
2021/09/20 08:20:04;;;;;;;8.65;5.50;;;17.30;73.90;;;;;;4970634;28;20273;-75
2021/09/20 08:22:30;;;;;;;8.98;5.93;;;17.50;73.80;;;;;;4982216;28;20197;-74
2021/09/20 08:24:55;;;;;;;9.63;5.93;;;17.60;73.10;;;;;;4979389;28;20678;-77
2021/09/20 08:27:22;;;;;;;10.30;5.90;;;17.80;72.90;;;;;;4958294;28;20206;-75
2021/09/20 08:29:49;;;;;;;14.43;5.70;;;18.10;73.20;;;;;;4975819;28;20262;-76
2021/09/20 08:32:15;;;;;;;7.35;5.50;;;18.50;72.70;;;;;;4961775;28;20225;-74
2021/09/20 08:34:40;;;;;;;12.27;5.60;;;19.20;71.00;;;;;;4971508;28;20201;-71
2021/09/20 08:37:06;;;;;;;8.27;5.32;;;19.90;68.10;;;;;;4988265;28;20567;-71
2021/09/20 08:39:32;;;;;;;8.52;5.32;;;20.40;65.90;;;;;;4980437;28;20196;-71
2021/09/20 08:41:58;;;;;;;5.53;4.63;;;20.80;63.80;;;;;;4974562;28;20827;-72
2021/09/20 08:44:24;;;;;;;7.72;5.18;;;21.30;61.20;;;;;;4971446;28;20217;-73
2021/09/20 08:46:52;;;;;;;6.63;5.07;;;21.70;59.20;;;;;;4961872;28;20290;-73
2021/09/20 08:49:23;;;;;;;7.18;5.38;;;22.20;57.50;;;;;;4985606;28;20233;-72
2021/09/20 08:51:54;;;;;;;6.72;4.57;;;22.60;55.80;;;;;;4992231;28;20185;-72
2021/09/20 08:54:24;;;;;;;7.88;4.20;;;23.10;54.40;;;;;;4976853;28;20204;-72
2021/09/20 08:56:50;;;;;;;9.77;4.63;;;23.60;53.10;;;;;;4984533;28;20197;-70
2021/09/20 08:59:16;;;;;;;7.68;4.30;;;23.90;51.00;;;;;;4972293;28;20221;-72
2021/09/20 09:01:50;;;;;;;6.10;4.30;;;24.00;49.70;;;;;;4977199;28;20528;-72
2021/09/20 09:04:24;;;;;;;8.30;4.60;;;24.00;48.80;;;;;;4975513;28;20242;-71
2021/09/20 09:06:58;;;;;;;6.78;4.13;;;23.80;48.30;;;;;;4964641;28;20252;-72
2021/09/20 09:09:32;;;;;;;4.85;4.10;;;23.70;48.20;;;;;;5000611;28;20695;-70
2021/09/20 09:12:22;;;;;;;6.43;4.40;;;23.50;48.00;;;;;;4973028;28;20612;-69
2021/09/20 09:14:53;;;;;;;10.55;4.35;;;23.40;48.00;;;;;;4975007;28;20216;-71
2021/09/20 09:17:23;;;;;;;4.13;3.55;;;23.30;48.40;;;;;;4967806;28;20197;-71
2021/09/20 09:19:53;;;;;;;8.90;4.13;;;23.20;48.50;;;;;;4976397;28;20224;-71
2021/09/20 09:22:19;;;;;;;7.00;4.28;;;23.20;48.40;;;;;;4980831;28;20184;-73
2021/09/20 09:24:57;;;;;;;7.85;4.35;;;23.20;48.00;;;;;;4982088;28;20673;-72
2021/09/20 09:27:23;;;;;;;8.07;4.50;;;23.20;47.60;;;;;;4992477;28;20718;-69
2021/09/20 09:29:49;;;;;;;11.00;4.68;;;23.20;47.40;;;;;;4991843;28;20197;-69
2021/09/20 09:32:19;;;;;;;7.85;4.35;;;23.30;47.30;;;;;;4978328;28;20195;-71
2021/09/20 09:34:56;;;;;;;6.55;4.70;;;23.40;47.10;;;;;;4981459;28;20245;-70
2021/09/20 09:37:22;;;;;;;6.35;4.72;;;23.50;47.10;;;;;;4971397;28;20219;-71
2021/09/20 09:39:49;;;;;;;6.72;4.22;;;23.70;46.70;;;;;;4976602;28;20280;-70
2021/09/20 09:42:25;;;;;;;6.43;4.40;;;24.20;46.10;;;;;;4974010;28;20194;-70
2021/09/20 09:44:51;;;;;;;6.57;4.50;;;24.80;44.80;;;;;;4967878;28;20189;-72
2021/09/20 09:47:30;;;;;;;13.05;5.72;;;25.50;43.90;;;;;;4970035;28;20196;-71
2021/09/20 09:50:18;;;;;;;5.15;4.32;;;26.20;42.70;;;;;;4977146;28;20299;-72
2021/09/20 09:52:45;;;;;;;11.00;4.38;;;26.80;41.30;;;;;;4979123;28;20859;-71
2021/09/20 09:55:12;;;;;;;12.70;4.20;;;27.50;40.30;;;;;;4973478;28;20185;-71
2021/09/20 09:57:38;;;;;;;12.57;4.78;;;28.20;39.30;;;;;;4971198;28;20217;-73
2021/09/20 10:00:13;;;;;;;10.20;4.10;;;29.00;38.00;;;;;;4973688;28;20260;-70
2021/09/20 10:02:43;;;;;;;6.88;4.28;;;29.60;36.30;;;;;;4980283;28;20268;-73
2021/09/20 10:05:13;;;;;;;9.60;5.35;;;30.20;35.50;;;;;;4992374;28;20646;-73
2021/09/20 10:07:44;;;;;;;8.65;5.00;;;30.60;35.30;;;;;;4971404;28;20751;-74
2021/09/20 10:10:14;;;;;;;8.40;4.53;;;31.30;34.20;;;;;;4978815;28;20548;-70
2021/09/20 10:12:42;;;;;;;8.00;4.38;;;31.90;32.80;;;;;;4976446;28;20193;-72
2021/09/20 10:15:10;;;;;;;8.38;4.25;;;32.40;32.20;;;;;;4989555;28;20231;-73
2021/09/20 10:17:36;;;;;;;;;;;32.80;31.90;;;;;;4989859;28;20217;-73
2021/09/20 10:20:02;;;;;;;;;;;33.30;30.60;;;;;;4973926;28;19914;-74
2021/09/20 10:22:28;;;;;;;;;;;33.70;30.00;;;;;;4966046;28;20475;-73
2021/09/20 10:24:56;;;;;;;;;;;34.20;29.60;;;;;;4974060;28;19921;-75
2021/09/20 10:27:23;;;;;;;;;;;34.40;29.10;;;;;;4972647;28;19956;-75
2021/09/20 10:30:04;;;;;;;;;;;34.30;28.90;;;;;;4970708;28;19917;-74
2021/09/20 10:32:30;;;;;;;;;;;34.20;28.80;;;;;;4972212;28;19914;-75
2021/09/20 10:35:32;;;;;;;7.32;4.85;;;34.10;28.80;;;;;;4969570;28;20374;-74
2021/09/20 10:38:29;;;;;;;5.20;4.60;;;34.00;28.60;;;;;;4972099;28;20354;-73
2021/09/20 10:41:22;;;;;;;9.43;5.03;;;33.90;28.90;;;;;;4971671;28;20210;-74
2021/09/20 10:44:07;;;;;;;6.75;4.40;;;33.90;28.80;;;;;;4969964;28;20193;-75
2021/09/20 10:46:35;;;;;;;10.35;5.20;;;33.90;28.90;;;;;;4975099;28;20205;-74
2021/09/20 10:49:17;;;;;;;7.15;4.90;;;34.00;28.60;;;;;;4968444;28;20193;-74
2021/09/20 10:51:58;;;;;;;9.07;5.25;;;33.90;28.30;;;;;;4971451;28;20662;-71
2021/09/20 10:54:25;;;;;;;7.63;5.35;;;33.70;28.60;;;;;;4972292;28;20271;-74
2021/09/20 10:56:53;;;;;;;8.10;5.45;;;33.40;28.80;;;;;;4982506;28;21369;-72
2021/09/20 10:59:23;;;;;;;8.88;5.13;;;33.20;28.90;;;;;;4971030;28;20189;-71
2021/09/20 11:01:57;;;;;;;9.90;5.50;;;32.90;28.90;;;;;;4985430;28;20680;-72
2021/09/20 11:04:28;;;;;;;7.18;5.65;;;32.40;29.20;;;;;;4969516;28;20198;-72
2021/09/20 11:07:19;;;;;;;5.95;4.72;;;32.50;29.20;;;;;;4980454;28;20229;-71
2021/09/20 11:09:51;;;;;;;5.75;5.05;;;32.80;29.30;;;;;;4984894;28;20191;-72
2021/09/20 11:12:23;;;;;;;6.80;4.68;;;33.10;28.80;;;;;;4972741;28;20737;-71
2021/09/20 11:15:02;;;;;;;8.43;4.80;;;33.10;28.50;;;;;;4989046;28;20216;-71
2021/09/20 11:17:33;;;;;;;7.05;4.45;;;33.10;28.60;;;;;;4979154;28;20239;-70
2021/09/20 11:20:00;;;;;;;;;;;33.30;28.20;;;;;;4952096;28;20035;-72
2021/09/20 11:22:33;;;;;;;;;;;33.70;28.20;;;;;;5106678;27;19919;-71
2021/09/20 11:25:06;;;;;;;6.47;4.57;;;34.00;28.00;;;;;;5087711;28;20031;-69
2021/09/20 11:27:36;;;;;;;6.55;5.03;;;33.90;27.90;;;;;;5085093;28;20200;-73
2021/09/20 11:30:12;;;;;;;7.40;4.78;;;33.90;27.80;;;;;;5086099;28;20177;-73
2021/09/20 11:32:55;;;;;;;8.25;5.15;;;34.00;27.80;;;;;;5084620;28;20189;-73
2021/09/20 11:35:23;;;;;;;7.10;4.65;;;34.10;27.80;;;;;;5086453;28;20212;-71
2021/09/20 11:37:49;;;;;;;5.80;4.70;;;34.00;27.70;;;;;;5084599;28;20270;-73
2021/09/20 11:40:21;;;;;;;6.05;4.63;;;33.70;27.80;;;;;;5090616;28;20195;-72
2021/09/20 11:42:55;;;;;;;7.40;4.85;;;33.30;28.00;;;;;;5087185;28;20571;-73
2021/09/20 11:45:22;;;;;;;10.93;5.40;;;32.90;28.10;;;;;;5085419;28;20902;-74
2021/09/20 11:47:51;;;;;;;7.65;5.32;;;33.30;26.80;;;;;;5084668;28;20180;-71
2021/09/20 11:50:21;;;;;;;6.90;5.30;;;32.30;27.70;;;;;;5087401;28;20189;-74
2021/09/20 11:52:49;;;;;;;7.68;5.07;;;31.60;28.60;;;;;;5083338;28;20185;-73
2021/09/20 11:55:21;;;;;;;7.80;5.68;;;31.10;29.20;;;;;;5083543;28;20262;-71
2021/09/20 11:57:53;;;;;;;7.30;5.38;;;31.00;29.60;;;;;;5088709;28;20182;-73
2021/09/20 12:00:23;;;;;;;10.55;5.80;;;31.20;29.60;;;;;;5092301;28;20678;-70
2021/09/20 12:02:50;;;;;;;11.35;4.93;;;31.30;30.00;;;;;;5084506;28;21048;-73
2021/09/20 12:05:23;;;;;;;10.85;5.18;;;31.10;29.80;;;;;;5116216;27;20473;-71
2021/09/20 12:07:54;;;;;;;9.10;5.18;;;30.80;30.10;;;;;;5085348;28;20544;-73
2021/09/20 12:10:29;;;;;;;5.97;5.00;;;30.60;30.60;;;;;;5085154;28;20189;-74
2021/09/20 12:13:04;;;;;;;6.47;4.80;;;30.50;30.70;;;;;;5084995;28;20177;-69
2021/09/20 12:15:33;;;;;;;7.88;5.38;;;30.30;30.70;;;;;;5082941;28;20185;-74
2021/09/20 12:18:23;;;;;;;6.50;5.22;;;30.10;30.90;;;;;;5083528;28;20204;-72
2021/09/20 12:20:52;;;;;;;6.18;4.70;;;29.80;31.40;;;;;;5084718;28;20226;-70
2021/09/20 12:23:27;;;;;;;7.75;5.32;;;29.70;31.70;;;;;;5082833;28;20190;-75
2021/09/20 12:25:57;;;;;;;6.57;5.20;;;29.40;31.80;;;;;;5085096;28;20275;-73
2021/09/20 12:28:28;;;;;;;6.38;4.70;;;29.00;31.90;;;;;;5083956;28;20326;-72
2021/09/20 12:31:02;;;;;;;8.70;5.50;;;28.70;32.40;;;;;;5088590;28;20204;-75
2021/09/20 12:33:29;;;;;;;9.93;5.43;;;28.40;32.70;;;;;;5075835;28;20332;-73
2021/09/20 12:35:54;;;;;;;7.22;5.05;;;28.10;33.10;;;;;;5083281;28;20650;-75
2021/09/20 12:38:32;;;;;;;7.47;4.38;;;27.90;33.50;;;;;;5076687;28;20265;-70
2021/09/20 12:41:09;;;;;;;7.90;4.53;;;27.60;33.80;;;;;;5068830;28;20216;-71
2021/09/20 12:43:35;;;;;;;7.00;4.45;;;27.50;34.00;;;;;;5071409;28;20189;-71
2021/09/20 12:46:13;;;;;;;10.20;4.40;;;27.40;34.10;;;;;;5071556;28;20185;-72
2021/09/20 12:48:42;;;;;;;7.25;4.47;;;27.30;34.10;;;;;;5067130;28;20181;-72
2021/09/20 12:51:11;;;;;;;8.07;4.05;;;27.30;34.10;;;;;;5069188;28;20573;-71